createdAt,value
2022-11-09T00:00:08.217Z,2.53
2022-11-09T00:02:35.017Z,2.35
2022-11-09T00:05:02.539Z,2.05
2022-11-09T00:07:31.766Z,2.25
2022-11-09T00:09:58.723Z,1.60
2022-11-09T00:12:25.597Z,2.35
2022-11-09T00:14:52.527Z,2.05
2022-11-09T00:17:19.316Z,2.25
2022-11-09T00:19:46.307Z,1.90
2022-11-09T00:22:13.297Z,2.05
2022-11-09T00:24:40.559Z,2.75
2022-11-09T00:27:07.895Z,2.15
2022-11-09T00:29:35.029Z,2.47
2022-11-09T00:32:02.036Z,1.90
2022-11-09T00:34:28.978Z,2.10
2022-11-09T00:36:56.195Z,1.80
2022-11-09T00:39:24.013Z,2.13
2022-11-09T00:41:51.094Z,2.22
2022-11-09T00:44:18.011Z,2.60
2022-11-09T00:46:45.060Z,1.88
2022-11-09T00:49:12.001Z,2.20
2022-11-09T00:51:39.086Z,2.15
2022-11-09T00:54:08.080Z,2.00
2022-11-09T00:56:34.884Z,1.75
2022-11-09T00:59:01.662Z,1.73
2022-11-09T01:01:28.510Z,2.05
2022-11-09T01:03:55.343Z,1.95
2022-11-09T01:06:25.101Z,1.80
2022-11-09T01:08:52.991Z,2.22
2022-11-09T01:11:22.228Z,1.70
2022-11-09T01:13:49.586Z,2.03
2022-11-09T01:16:20.015Z,2.30
2022-11-09T01:18:47.366Z,2.15
2022-11-09T01:21:15.596Z,2.00
2022-11-09T01:23:44.265Z,2.05
2022-11-09T01:26:15.920Z,2.03
2022-11-09T01:28:43.609Z,1.83
2022-11-09T01:31:13.565Z,2.38
2022-11-09T01:33:40.777Z,2.15
2022-11-09T01:36:10.225Z,1.73
2022-11-09T01:38:38.004Z,2.08
2022-11-09T01:41:12.197Z,2.55
2022-11-09T01:43:39.066Z,1.83
2022-11-09T01:46:12.287Z,2.38
2022-11-09T01:48:49.717Z,1.88
2022-11-09T01:51:28.858Z,2.65
2022-11-09T01:54:13.282Z,1.95
2022-11-09T01:56:40.803Z,2.25
2022-11-09T01:59:13.981Z,1.98
2022-11-09T02:01:42.902Z,1.85
2022-11-09T02:04:24.949Z,1.88
2022-11-09T02:06:54.496Z,1.65
2022-11-09T02:09:39.457Z,1.85
2022-11-09T02:12:07.937Z,2.55
2022-11-09T02:14:36.910Z,2.35
2022-11-09T02:17:04.179Z,2.05
2022-11-09T02:19:31.359Z,2.22
2022-11-09T02:21:58.293Z,2.33
2022-11-09T02:24:25.867Z,2.20
2022-11-09T02:26:54.204Z,1.90
2022-11-09T02:29:28.209Z,2.10
2022-11-09T02:31:59.981Z,1.95
2022-11-09T02:34:26.958Z,2.15
2022-11-09T02:36:53.974Z,1.92
2022-11-09T02:39:26.092Z,2.67
2022-11-09T02:42:03.627Z,2.80
2022-11-09T02:44:35.870Z,2.95
2022-11-09T02:47:02.871Z,2.13
2022-11-09T02:49:29.677Z,2.05
2022-11-09T02:51:56.653Z,2.58
2022-11-09T02:54:23.786Z,2.40
2022-11-09T02:56:50.815Z,2.03
2022-11-09T02:59:17.845Z,2.10
2022-11-09T03:01:44.855Z,2.30
2022-11-09T03:04:11.907Z,2.10
2022-11-09T03:06:39.223Z,2.35
2022-11-09T03:09:09.990Z,2.53
2022-11-09T03:11:37.679Z,3.28
2022-11-09T03:14:05.243Z,2.17
2022-11-09T03:16:32.457Z,2.80
2022-11-09T03:18:59.477Z,2.38
2022-11-09T03:21:26.900Z,2.60
2022-11-09T03:23:54.797Z,1.90
2022-11-09T03:26:22.389Z,2.40
2022-11-09T03:28:49.605Z,2.20
2022-11-09T03:31:16.783Z,2.67
2022-11-09T03:33:43.992Z,2.38
2022-11-09T03:36:11.634Z,2.42
2022-11-09T03:38:38.389Z,1.92
2022-11-09T03:41:05.368Z,2.85
2022-11-09T03:43:32.957Z,3.17
2022-11-09T03:45:59.825Z,2.65
2022-11-09T03:48:26.643Z,2.58
2022-11-09T03:50:53.468Z,2.58
2022-11-09T03:53:20.686Z,2.33
2022-11-09T03:55:48.090Z,2.60
2022-11-09T03:58:14.969Z,2.38
2022-11-09T04:00:42.660Z,2.30
2022-11-09T04:03:09.566Z,2.38
2022-11-09T04:05:36.452Z,2.75
2022-11-09T04:08:03.783Z,2.20
2022-11-09T04:10:31.133Z,2.35
2022-11-09T04:12:58.517Z,2.92
2022-11-09T04:15:25.757Z,1.92
2022-11-09T04:18:01.050Z,2.28
2022-11-09T04:20:30.194Z,2.13
2022-11-09T04:22:59.084Z,2.22
2022-11-09T04:25:27.487Z,2.47
2022-11-09T04:27:58.831Z,2.38
2022-11-09T04:30:30.036Z,2.47
2022-11-09T04:32:58.308Z,2.33
2022-11-09T04:35:26.682Z,2.50
2022-11-09T04:38:05.242Z,2.22
2022-11-09T04:40:34.125Z,2.20
2022-11-09T04:43:05.784Z,2.45
2022-11-09T04:45:34.323Z,2.38
2022-11-09T04:48:03.211Z,2.47
2022-11-09T04:50:30.782Z,3.45
2022-11-09T04:53:09.927Z,2.35
2022-11-09T04:55:37.055Z,2.30
2022-11-09T04:58:04.364Z,2.53
2022-11-09T05:00:31.711Z,2.40
2022-11-09T05:03:02.635Z,2.60
2022-11-09T05:05:29.786Z,2.88
2022-11-09T05:07:56.965Z,2.20
2022-11-09T05:10:23.854Z,2.95
2022-11-09T05:12:50.935Z,2.20
2022-11-09T05:15:17.704Z,2.42
2022-11-09T05:17:44.647Z,2.60
2022-11-09T05:20:11.976Z,2.78
2022-11-09T05:23:01.191Z,4.00
2022-11-09T05:25:28.151Z,4.78
2022-11-09T05:27:55.430Z,2.38
2022-11-09T05:30:22.954Z,3.08
2022-11-09T05:32:49.761Z,3.00
2022-11-09T05:35:16.616Z,2.08
2022-11-09T05:37:47.470Z,2.20
2022-11-09T05:40:14.997Z,2.38
2022-11-09T05:42:42.225Z,2.45
2022-11-09T05:45:40.110Z,2.25
2022-11-09T05:47:58.300Z,2.88
2022-11-09T05:50:25.278Z,2.85
2022-11-09T05:52:53.039Z,2.97
2022-11-09T05:55:19.950Z,2.35
2022-11-09T05:57:46.937Z,2.08
2022-11-09T06:00:14.456Z,2.60
2022-11-09T06:02:41.862Z,2.38
2022-11-09T06:05:12.816Z,2.53
2022-11-09T06:07:39.763Z,2.60
2022-11-09T06:10:07.574Z,2.97
2022-11-09T06:12:34.925Z,2.70
2022-11-09T06:15:01.744Z,2.58
2022-11-09T06:17:28.750Z,2.25
2022-11-09T06:19:56.034Z,3.08
2022-11-09T06:22:23.389Z,2.45
2022-11-09T06:24:50.308Z,2.90
2022-11-09T06:27:17.447Z,2.42
2022-11-09T06:29:44.569Z,2.63
2022-11-09T06:32:11.801Z,2.55
2022-11-09T06:34:38.983Z,2.95
2022-11-09T06:37:05.908Z,2.35
2022-11-09T06:39:32.640Z,2.25
2022-11-09T06:41:59.521Z,2.47
2022-11-09T06:44:26.297Z,2.50
2022-11-09T06:46:53.129Z,2.78
2022-11-09T06:49:19.898Z,2.83
2022-11-09T06:51:47.262Z,2.45
2022-11-09T06:54:14.320Z,2.45
2022-11-09T06:56:41.118Z,2.25
2022-11-09T06:59:08.894Z,2.50
2022-11-09T07:01:37.618Z,2.72
2022-11-09T07:04:04.691Z,2.50
2022-11-09T07:06:31.833Z,2.95
2022-11-09T07:08:58.763Z,3.47
2022-11-09T07:11:25.653Z,3.10
2022-11-09T07:13:57.032Z,2.53
2022-11-09T07:16:24.802Z,2.67
2022-11-09T07:18:51.545Z,2.17
2022-11-09T07:21:18.490Z,2.50
2022-11-09T07:23:48.749Z,2.50
2022-11-09T07:26:16.578Z,2.83
2022-11-09T07:28:43.992Z,2.55
2022-11-09T07:31:11.267Z,1.83
2022-11-09T07:33:38.402Z,2.42
2022-11-09T07:36:06.372Z,3.05
2022-11-09T07:38:33.784Z,4.03
2022-11-09T07:41:04.343Z,2.35
2022-11-09T07:43:32.458Z,3.45
2022-11-09T07:46:02.741Z,1.98
2022-11-09T07:48:30.147Z,2.38
2022-11-09T07:50:57.463Z,2.28
2022-11-09T07:53:24.399Z,2.25
2022-11-09T07:55:58.971Z,2.05
2022-11-09T07:58:26.038Z,2.08
2022-11-09T08:00:53.030Z,2.58
2022-11-09T08:03:24.556Z,1.63
2022-11-09T08:05:51.905Z,2.60
2022-11-09T08:08:18.760Z,2.10
2022-11-09T08:10:51.404Z,2.10
2022-11-09T08:13:19.962Z,2.40
2022-11-09T08:15:47.947Z,2.47
2022-11-09T08:18:18.266Z,2.08
2022-11-09T08:20:46.616Z,2.25
2022-11-09T08:23:16.106Z,2.92
2022-11-09T08:25:43.882Z,2.30
2022-11-09T08:28:14.697Z,2.15
2022-11-09T08:30:45.721Z,1.90
2022-11-09T08:33:13.531Z,2.75
2022-11-09T08:35:41.004Z,2.47
2022-11-09T08:38:07.877Z,2.85
2022-11-09T08:40:35.079Z,2.13
2022-11-09T08:43:07.230Z,1.90
2022-11-09T08:45:36.836Z,2.28
2022-11-09T08:48:04.494Z,2.10
2022-11-09T08:50:33.195Z,1.80
2022-11-09T08:53:01.595Z,2.60
2022-11-09T08:55:28.795Z,2.58
2022-11-09T08:57:57.763Z,1.65
2022-11-09T09:00:25.455Z,1.95
2022-11-09T09:02:52.697Z,2.45
2022-11-09T09:05:21.567Z,2.28
2022-11-09T09:07:48.839Z,2.13
2022-11-09T09:10:16.116Z,2.13
2022-11-09T09:12:43.890Z,2.08
2022-11-09T09:15:11.186Z,2.20
2022-11-09T09:17:38.051Z,1.90
2022-11-09T09:20:05.988Z,2.20
2022-11-09T09:22:34.086Z,1.90
2022-11-09T09:25:01.115Z,2.13
2022-11-09T09:27:29.777Z,2.35
2022-11-09T09:29:57.025Z,2.47
2022-11-09T09:32:23.876Z,3.17
2022-11-09T09:34:50.713Z,2.05
2022-11-09T09:37:18.991Z,2.42
2022-11-09T09:39:46.022Z,1.73
2022-11-09T09:42:19.448Z,2.40
2022-11-09T09:44:46.661Z,2.30
2022-11-09T09:47:19.974Z,2.25
2022-11-09T09:49:53.252Z,2.20
2022-11-09T09:53:04.623Z,2.35
2022-11-09T09:55:40.407Z,2.03
2022-11-09T09:58:12.234Z,1.85
2022-11-09T10:00:42.645Z,2.22
2022-11-09T10:03:21.075Z,1.92
2022-11-09T10:06:24.996Z,2.28
2022-11-09T10:09:22.646Z,2.67
2022-11-09T10:12:08.496Z,2.15
2022-11-09T10:15:10.675Z,2.28
2022-11-09T10:17:51.915Z,2.30
2022-11-09T10:20:52.933Z,2.20
2022-11-09T10:23:53.430Z,2.60
2022-11-09T10:26:35.735Z,2.97
2022-11-09T10:29:16.933Z,2.45
2022-11-09T10:31:47.039Z,2.38
2022-11-09T10:34:56.472Z,2.90
2022-11-09T10:37:27.793Z,2.28
2022-11-09T10:40:13.650Z,2.60
2022-11-09T10:43:00.422Z,2.45
2022-11-09T10:45:34.820Z,2.65
2022-11-09T10:48:02.514Z,3.05
2022-11-09T10:50:52.656Z,2.45
2022-11-09T10:53:23.722Z,2.35
2022-11-09T10:56:20.211Z,2.42
2022-11-09T10:58:53.840Z,2.58
2022-11-09T11:01:25.657Z,2.75
2022-11-09T11:03:54.747Z,2.40
2022-11-09T11:06:21.738Z,1.33
2022-11-09T11:08:58.848Z,2.20
2022-11-09T11:11:35.184Z,1.40
2022-11-09T11:14:11.794Z,1.40
2022-11-09T11:16:40.446Z,1.27
2022-11-09T11:19:26.106Z,1.38
2022-11-09T11:22:23.388Z,1.58
2022-11-09T11:25:11.831Z,0.90
2022-11-09T11:27:52.157Z,0.93
2022-11-09T11:30:34.002Z,1.02
2022-11-09T11:33:01.101Z,0.93
2022-11-09T11:35:52.011Z,0.98
2022-11-09T11:38:35.919Z,1.15
2022-11-09T11:41:37.008Z,1.20
2022-11-09T11:44:19.334Z,1.30
2022-11-09T11:47:08.887Z,1.20
2022-11-09T11:50:05.162Z,2.00
2022-11-09T11:53:12.981Z,1.40
2022-11-09T11:55:47.985Z,1.50
2022-11-09T11:58:35.376Z,1.77
2022-11-09T12:01:17.775Z,1.45
2022-11-09T12:04:07.119Z,1.67
2022-11-09T12:06:44.255Z,1.67
2022-11-09T12:09:37.333Z,1.50
2022-11-09T12:12:17.191Z,1.83
2022-11-09T12:15:02.700Z,1.58
2022-11-09T12:17:56.008Z,1.60
2022-11-09T12:20:38.811Z,1.55
2022-11-09T12:23:40.171Z,1.75
2022-11-09T12:26:30.275Z,2.20
2022-11-09T12:29:19.993Z,2.13
2022-11-09T12:32:02.784Z,2.05
2022-11-09T12:34:37.302Z,2.38
2022-11-09T12:37:13.817Z,2.28
2022-11-09T12:39:40.721Z,2.33
2022-11-09T12:42:24.393Z,2.30
2022-11-09T12:45:22.793Z,1.80
2022-11-09T12:47:50.008Z,1.85
2022-11-09T12:50:21.719Z,2.10
2022-11-09T12:52:52.325Z,2.30
2022-11-09T12:55:24.205Z,1.50
2022-11-09T12:57:51.257Z,2.00
2022-11-09T13:00:36.683Z,1.40
2022-11-09T13:03:07.047Z,1.42
2022-11-09T13:05:38.449Z,1.98
2022-11-09T13:08:08.856Z,1.50
2022-11-09T13:10:38.264Z,2.00
2022-11-09T13:13:07.989Z,1.90
2022-11-09T13:15:35.741Z,1.50
2022-11-09T13:18:05.065Z,1.75
2022-11-09T13:26:36.985Z,0.95
2022-11-09T13:29:14.977Z,1.55
2022-11-09T13:32:13.150Z,1.85
2022-11-09T13:34:49.272Z,1.67
2022-11-09T13:37:41.192Z,1.80
2022-11-09T13:40:33.186Z,1.55
2022-11-09T13:43:14.005Z,1.83
2022-11-09T13:45:49.452Z,1.80
2022-11-09T13:48:38.381Z,1.55
2022-11-09T13:51:17.920Z,1.60
2022-11-09T13:54:23.380Z,2.22
2022-11-09T13:56:51.328Z,1.63
2022-11-09T13:59:28.270Z,1.48
2022-11-09T14:01:57.416Z,1.63
2022-11-09T14:04:28.800Z,2.28
2022-11-09T14:07:25.322Z,1.10
2022-11-09T14:10:12.786Z,1.33
2022-11-09T14:12:47.718Z,1.45
2022-11-09T14:22:56.864Z,1.40
2022-11-09T14:25:26.716Z,1.15
2022-11-09T14:27:59.143Z,1.65
2022-11-09T14:30:31.312Z,1.60
2022-11-09T14:32:59.296Z,1.70
2022-11-09T14:35:26.492Z,1.85
2022-11-09T14:37:55.460Z,1.63
2022-11-09T14:40:29.387Z,1.20
2022-11-09T14:43:19.187Z,2.47
2022-11-09T14:53:36.193Z,1.75
2022-11-09T14:56:05.883Z,2.05
2022-11-09T14:58:36.086Z,2.13
2022-11-09T15:01:27.223Z,2.03
2022-11-09T15:04:14.485Z,2.20
2022-11-09T15:15:12.151Z,2.10
2022-11-09T15:17:45.811Z,1.75
2022-11-09T15:20:13.544Z,2.35
2022-11-09T15:22:40.476Z,2.60
2022-11-09T15:25:52.337Z,2.22
2022-11-09T15:28:25.643Z,2.17
2022-11-09T15:38:41.304Z,1.80
2022-11-09T15:41:19.944Z,2.33
2022-11-09T15:43:47.025Z,2.20
2022-11-09T15:46:19.163Z,2.25
2022-11-09T15:48:46.616Z,2.25
2022-11-09T15:51:15.444Z,2.20
2022-11-09T15:53:42.914Z,2.15
2022-11-09T15:56:19.990Z,2.65
2022-11-09T15:58:49.251Z,2.65
2022-11-09T16:01:17.221Z,2.22
2022-11-09T16:03:45.036Z,2.40
2022-11-09T16:06:18.125Z,2.58
2022-11-09T16:08:49.615Z,2.05
2022-11-09T16:11:23.054Z,1.77
2022-11-09T16:13:53.142Z,1.85
2022-11-09T16:16:20.480Z,2.13
2022-11-09T16:18:47.327Z,2.65
2022-11-09T16:26:42.499Z,2.00
2022-11-09T16:29:10.516Z,2.05
2022-11-09T16:31:53.032Z,2.95
2022-11-09T16:34:20.583Z,2.22
2022-11-09T16:36:53.824Z,2.10
2022-11-09T16:39:25.945Z,2.03
2022-11-09T16:41:53.435Z,2.30
2022-11-09T16:44:23.730Z,2.08
2022-11-09T16:46:52.181Z,1.90
2022-11-09T16:56:53.928Z,1.50
2022-11-09T16:59:21.527Z,2.10
2022-11-09T17:01:57.731Z,2.10
2022-11-09T17:04:25.356Z,2.20
2022-11-09T17:14:35.034Z,2.17
2022-11-09T17:17:02.058Z,3.05
2022-11-09T17:19:33.711Z,2.13
2022-11-09T17:22:01.402Z,1.83
2022-11-09T17:24:28.649Z,2.55
2022-11-09T17:26:58.616Z,2.70
2022-11-09T17:29:25.586Z,3.20
2022-11-09T17:31:53.424Z,2.58
2022-11-09T17:34:20.191Z,2.50
2022-11-09T17:37:03.725Z,2.92
2022-11-09T17:39:31.536Z,2.60
2022-11-09T17:41:58.413Z,2.80
2022-11-09T17:44:25.317Z,2.15
2022-11-09T17:46:52.216Z,2.42
2022-11-09T17:49:19.722Z,3.25
2022-11-09T17:51:46.940Z,2.63
2022-11-09T17:54:15.144Z,2.35
2022-11-09T17:56:42.316Z,2.85
2022-11-09T17:59:09.460Z,2.42
2022-11-09T18:01:41.529Z,4.60
2022-11-09T18:04:11.251Z,3.67
2022-11-09T18:06:38.513Z,2.42
2022-11-09T18:11:53.157Z,3.30
2022-11-09T18:14:20.479Z,3.03
2022-11-09T18:16:47.682Z,2.35
2022-11-09T18:19:14.510Z,3.00
2022-11-09T18:21:41.674Z,2.60
2022-11-09T18:24:09.338Z,2.40
2022-11-09T18:26:37.458Z,2.05
2022-11-09T18:29:04.437Z,2.38
2022-11-09T18:31:31.365Z,2.63
2022-11-09T18:33:58.146Z,2.30
2022-11-09T18:36:26.211Z,2.20
2022-11-09T18:38:55.823Z,2.08
2022-11-09T18:41:24.441Z,2.35
2022-11-09T18:43:53.897Z,1.90
2022-11-09T18:46:22.428Z,2.50
2022-11-09T18:48:53.862Z,2.33
2022-11-09T18:51:21.049Z,2.63
2022-11-09T18:53:48.835Z,2.33
2022-11-09T18:56:21.641Z,2.60
2022-11-09T19:06:38.976Z,2.80
2022-11-09T19:09:29.200Z,2.72
2022-11-09T19:12:03.013Z,3.05
2022-11-09T19:14:30.651Z,3.50
2022-11-09T19:16:58.220Z,3.22
2022-11-09T19:19:27.100Z,4.72
2022-11-09T19:29:37.549Z,3.10
2022-11-09T19:32:04.724Z,3.30
2022-11-09T19:34:31.877Z,3.50
2022-11-09T19:36:59.164Z,3.78
2022-11-09T19:39:30.967Z,3.40
2022-11-09T19:42:00.570Z,3.75
2022-11-09T19:44:27.669Z,3.13
2022-11-09T19:46:54.939Z,3.53
2022-11-09T19:49:21.987Z,3.60
2022-11-09T19:51:48.955Z,2.92
2022-11-09T19:59:06.817Z,3.35
2022-11-09T20:01:34.268Z,3.42
2022-11-09T20:04:06.406Z,2.92
2022-11-09T20:06:38.549Z,3.40
2022-11-09T20:09:05.896Z,3.72
2022-11-09T20:11:51.362Z,3.50
2022-11-09T20:14:18.722Z,3.92
2022-11-09T20:16:48.577Z,4.00
2022-11-09T20:19:16.095Z,3.33
2022-11-09T20:21:44.815Z,3.40
2022-11-09T20:24:12.551Z,3.25
2022-11-09T20:26:41.575Z,3.50
2022-11-09T20:29:08.754Z,3.90
2022-11-09T20:31:37.750Z,4.00
2022-11-09T20:34:04.608Z,3.88
2022-11-09T20:36:31.671Z,4.47
2022-11-09T20:39:00.510Z,3.78
2022-11-09T20:41:28.215Z,4.00
2022-11-09T20:43:55.216Z,4.53
2022-11-09T20:46:30.007Z,4.18
2022-11-09T20:49:01.800Z,3.53
2022-11-09T20:51:29.448Z,3.45
2022-11-09T20:53:56.255Z,3.40
2022-11-09T20:56:23.281Z,4.30
2022-11-09T20:58:50.635Z,3.63
2022-11-09T21:01:20.460Z,3.38
2022-11-09T21:03:49.160Z,3.33
2022-11-09T21:06:16.213Z,3.80
2022-11-09T21:16:42.096Z,4.72
2022-11-09T21:19:08.975Z,4.10
2022-11-09T21:30:02.507Z,3.80
2022-11-09T21:32:30.758Z,4.35
2022-11-09T21:34:57.613Z,4.88
2022-11-09T21:37:24.425Z,4.32
2022-11-09T21:39:51.206Z,4.22
2022-11-09T21:42:18.147Z,4.47
2022-11-09T21:44:45.225Z,4.72
2022-11-09T21:47:12.060Z,3.60
2022-11-09T21:49:38.836Z,3.53
2022-11-09T21:52:06.684Z,3.72
2022-11-09T21:54:33.573Z,3.95
2022-11-09T21:57:00.380Z,4.10
2022-11-09T21:59:27.632Z,3.40
2022-11-09T22:05:51.095Z,3.33
2022-11-09T22:08:18.270Z,3.05
2022-11-09T22:10:45.689Z,3.63
2022-11-09T22:13:33.134Z,3.63
2022-11-09T22:16:06.609Z,3.90
2022-11-09T22:18:53.637Z,3.75
2022-11-09T22:21:22.806Z,4.18
2022-11-09T22:23:50.521Z,4.60
2022-11-09T22:26:18.030Z,4.03
2022-11-09T22:28:45.755Z,4.35
2022-11-09T22:31:13.592Z,4.03
2022-11-09T22:33:40.639Z,3.75
2022-11-09T22:36:10.207Z,3.83
2022-11-09T22:38:37.158Z,3.88
2022-11-09T22:41:06.431Z,3.80
2022-11-09T22:43:38.569Z,3.95
2022-11-09T22:46:13.703Z,3.90
2022-11-09T22:48:42.160Z,3.70
2022-11-09T22:51:11.978Z,3.58
2022-11-09T22:53:39.191Z,4.10
2022-11-09T22:56:07.016Z,3.83
2022-11-09T22:58:33.879Z,3.38
2022-11-09T23:01:10.870Z,4.40
2022-11-09T23:03:38.326Z,4.07
2022-11-09T23:06:08.388Z,3.92
2022-11-09T23:08:39.150Z,4.28
2022-11-09T23:11:09.210Z,3.55
2022-11-09T23:13:36.299Z,3.60
2022-11-09T23:16:06.103Z,3.55
2022-11-09T23:18:51.868Z,3.20
2022-11-09T23:21:19.936Z,3.63
2022-11-09T23:23:47.081Z,3.70
2022-11-09T23:26:14.149Z,3.63
2022-11-09T23:28:40.982Z,4.13
2022-11-09T23:31:14.369Z,3.72
2022-11-09T23:33:41.814Z,4.38
2022-11-09T23:36:10.107Z,3.42
2022-11-09T23:38:38.990Z,3.22
2022-11-09T23:41:08.115Z,3.70
2022-11-09T23:43:36.094Z,3.85
2022-11-09T23:46:16.587Z,3.47
2022-11-09T23:48:43.536Z,3.63
2022-11-09T23:51:10.783Z,2.88
2022-11-09T23:53:38.329Z,3.20
2022-11-09T23:56:10.543Z,3.50
2022-11-09T23:58:38.043Z,3.97
